Stations météo

réclame
Mon MeteoGroup
Toulon/Ile du Levant, France (7678): Température de l'air & dewpoint: 16.08.2018 01:00:00 - 22.08.2018 01:00:00 (CEST)Toulon/Ile du Levant, France (7678): Vitesse du vent & gusts: 16.08.2018 01:00:00 - 22.08.2018 01:00:00 (CEST)Toulon/Ile du Levant, France (7678): Direction du vent: 16.08.2018 01:00:00 - 22.08.2018 01:00:00 (CEST)Toulon/Ile du Levant, France (7678): reduced air pressure: 16.08.2018 01:00:00 - 22.08.2018 01:00:00 (CEST)Toulon/Ile du Levant, France (7678): Quantités de précipitations: 16.08.2018 01:00:00 - 22.08.2018 01:00:00 (CEST)
Date & Time tt [°C] td [°C] ff [km/h] ff [knt] fx [km/h] fx [knt] dd ppp [hPa] rr [mm]
22.08.2018 01:00:00 24,9 17,6 2 1 13 7 WSW 1015,3 0,0
22.08.2018 00:00:00 26,3 16,5 9 5 13 7 W 1015,2 0,0
21.08.2018 23:00:00 25,8 19,0 8 4 15 8 WNW 1015,3 -
21.08.2018 22:00:00 25,6 19,7 13 7 18 10 WNW 1015,4 0,0
21.08.2018 21:00:00 26,9 16,8 4 2 8 4 W 1014,9 0,0
21.08.2018 20:00:00 28,1 17,0 2 1 8 4 NNE 1014,3 -
21.08.2018 19:00:00 29,3 18,7 2 1 18 10 E 1013,9 0,0
21.08.2018 18:00:00 29,6 15,0 8 4 18 10 E 1014,0 0,0
21.08.2018 17:00:00 29,5 21,5 13 7 22 12 E 1014,0 -
21.08.2018 16:00:00 29,9 21,3 13 7 24 13 ESE 1014,3 0,0
21.08.2018 15:00:00 29,5 20,6 21 11 35 19 E 1014,6 0,0
21.08.2018 14:00:00 30,3 18,4 24 13 34 18 E 1015,1 -
21.08.2018 13:00:00 31,5 17,4 24 13 37 20 E 1015,2 0,0
21.08.2018 12:00:00 32,2 15,2 16 9 28 15 E 1015,4 0,0
21.08.2018 11:00:00 31,4 16,6 13 7 21 11 E 1015,5 -
21.08.2018 10:00:00 30,0 15,7 11 6 18 10 E 1015,3 0,0
21.08.2018 09:00:00 26,4 18,8 4 2 15 8 N 1015,2 0,0
21.08.2018 08:00:00 26,1 14,2 5 3 9 5 ENE 1014,9 -
21.08.2018 07:00:00 25,3 13,5 5 3 8 4 ENE 1014,5 0,0
21.08.2018 06:00:00 25,9 13,4 2 1 9 5 NNE 1014,2 0,0
21.08.2018 05:00:00 25,2 13,7 8 4 9 5 NNW 1014,2 -
21.08.2018 04:00:00 24,2 15,4 8 4 13 7 WNW 1014,3 0,0
21.08.2018 03:00:00 24,8 15,1 9 5 15 8 WNW 1014,5 0,0
21.08.2018 02:00:00 25,0 18,4 11 6 16 9 WNW 1014,5 -
21.08.2018 01:00:00 25,2 15,5 13 7 22 12 NW 1014,8 0,0
21.08.2018 00:00:00 23,7 17,2 16 9 29 16 WNW 1014,7 0,0
20.08.2018 23:00:00 23,7 18,8 18 10 26 14 W 1014,8 -
20.08.2018 22:00:00 25,5 15,8 11 6 22 12 NNW 1014,6 0,0
20.08.2018 21:00:00 25,3 16,2 15 8 29 16 NNE 1014,5 0,0
20.08.2018 20:00:00 25,2 18,2 16 9 55 30 NNW 1014,9 -
20.08.2018 19:00:00 26,5 17,6 24 13 44 24 NNW 1015,4 0,0
20.08.2018 18:00:00 26,6 20,2 16 9 22 12 WNW 1014,9 0,0
20.08.2018 17:00:00 28,4 19,9 16 9 24 13 WNW 1014,4 -
20.08.2018 16:00:00 29,6 15,7 8 4 18 10 S 1014,5 0,0
20.08.2018 15:00:00 31,7 16,4 15 8 22 12 ESE 1015,0 0,0
20.08.2018 14:00:00 31,9 14,5 15 8 24 13 E 1015,2 -
20.08.2018 13:00:00 31,5 15,5 15 8 21 11 ESE 1015,5 0,0
20.08.2018 12:00:00 31,1 15,1 13 7 28 15 E 1015,6 0,0
20.08.2018 11:00:00 30,5 15,4 21 11 28 15 E 1015,4 -
20.08.2018 10:00:00 29,7 15,8 11 6 22 12 ENE 1015,3 0,0
20.08.2018 09:00:00 27,7 20,0 9 5 21 11 ENE 1015,1 0,0
20.08.2018 08:00:00 26,3 16,0 11 6 21 11 NE 1015,1 -
20.08.2018 07:00:00 24,6 17,1 15 8 18 10 ENE 1014,7 0,0
20.08.2018 06:00:00 24,3 19,6 8 4 15 8 E 1014,6 0,0
20.08.2018 05:00:00 25,4 16,8 11 6 15 8 E 1014,9 -
20.08.2018 04:00:00 25,5 16,9 8 4 16 9 WNW 1015,2 0,0
20.08.2018 03:00:00 24,3 19,8 13 7 18 10 WNW 1015,2 0,0
20.08.2018 02:00:00 24,3 20,6 16 9 21 11 WNW 1015,5 -
20.08.2018 01:00:00 24,7 20,0 13 7 16 9 W 1016,0 0,0
20.08.2018 00:00:00 25,8 17,7 13 7 16 9 WNW 1016,3 0,0
19.08.2018 23:00:00 25,8 18,0 13 7 15 8 WNW 1016,7 -
19.08.2018 22:00:00 25,5 19,4 11 6 18 10 W 1016,8 0,0
19.08.2018 21:00:00 25,8 19,4 15 8 21 11 W 1016,4 0,0
19.08.2018 20:00:00 26,4 21,2 15 8 18 10 WNW 1016,4 -
19.08.2018 19:00:00 27,9 20,5 13 7 26 14 W 1015,9 0,0
19.08.2018 18:00:00 28,0 21,1 15 8 18 10 WNW 1016,4 0,0
19.08.2018 17:00:00 28,4 19,9 13 7 18 10 WNW 1016,4 -
19.08.2018 16:00:00 30,6 17,7 5 3 18 10 ESE 1016,7 0,0
19.08.2018 15:00:00 29,9 18,3 9 5 16 9 SE 1017,1 0,0
19.08.2018 14:00:00 29,9 18,0 9 5 16 9 SE 1017,3 -
19.08.2018 13:00:00 30,1 18,5 13 7 18 10 ESE 1017,7 0,0
19.08.2018 12:00:00 29,7 17,2 11 6 18 10 ESE 1017,5 0,0
19.08.2018 11:00:00 29,8 17,3 8 4 18 10 E 1017,7 -
19.08.2018 10:00:00 26,4 17,5 5 3 13 7 NW 1017,6 0,0
19.08.2018 09:00:00 24,8 19,0 11 6 13 7 NW 1017,3 0,0
19.08.2018 08:00:00 23,6 18,9 11 6 15 8 NW 1017,4 -
19.08.2018 07:00:00 24,2 17,7 9 5 15 8 S 1016,9 0,0
19.08.2018 06:00:00 24,1 15,0 5 3 8 4 SE 1016,9 0,0
19.08.2018 05:00:00 23,4 18,1 5 3 8 4 W 1016,8 -
19.08.2018 04:00:00 23,2 18,3 5 3 9 5 W 1016,8 0,0
19.08.2018 03:00:00 23,4 18,7 5 3 15 8 W 1016,8 0,0
19.08.2018 02:00:00 23,4 19,5 11 6 15 8 WNW 1017,0 -
19.08.2018 01:00:00 24,1 21,0 8 4 11 6 W 1017,2 0,0
19.08.2018 00:00:00 24,3 19,1 5 3 9 5 W 1017,2 0,0
18.08.2018 23:00:00 24,3 19,6 9 5 15 8 NNW 1017,3 -
18.08.2018 22:00:00 23,8 21,1 11 6 18 10 WNW 1017,4 0,0
18.08.2018 21:00:00 24,0 20,5 9 5 13 7 W 1017,0 0,0
18.08.2018 20:00:00 25,1 21,4 9 5 15 8 W 1016,9 -
18.08.2018 19:00:00 26,8 20,9 5 3 13 7 WNW 1016,3 0,0
18.08.2018 18:00:00 26,9 21,2 4 2 15 8 SE 1016,3 0,0
18.08.2018 17:00:00 27,5 21,5 9 5 18 10 SE 1015,9 -
18.08.2018 16:00:00 27,4 20,5 13 7 22 12 SE 1016,3 0,0
18.08.2018 15:00:00 27,9 21,4 13 7 24 13 ESE 1016,5 0,0
18.08.2018 14:00:00 28,1 21,9 15 8 28 15 ESE 1016,6 -
18.08.2018 13:00:00 28,4 21,4 21 11 34 18 E 1016,6 0,0
18.08.2018 12:00:00 27,3 21,8 22 12 34 18 E 1016,7 0,0
18.08.2018 11:00:00 25,9 21,1 21 11 39 21 E 1016,5 -
18.08.2018 10:00:00 26,2 20,5 22 12 37 20 E 1016,0 0,0
18.08.2018 09:00:00 24,9 19,9 21 11 35 19 ENE 1015,9 0,0
18.08.2018 08:00:00 23,6 19,1 22 12 31 17 ENE 1015,3 -
18.08.2018 07:00:00 22,9 18,7 18 10 28 15 ENE 1015,1 0,0
18.08.2018 06:00:00 23,0 18,5 18 10 28 15 ENE 1014,7 0,0
18.08.2018 05:00:00 23,2 18,3 16 9 24 13 NE 1014,6 -
18.08.2018 04:00:00 23,0 17,9 16 9 24 13 ENE 1014,6 0,0
18.08.2018 03:00:00 22,9 19,3 16 9 21 11 ENE 1014,5 0,0
18.08.2018 02:00:00 23,4 19,1 8 4 13 7 NNE 1014,7 -
18.08.2018 01:00:00 23,3 20,2 9 5 15 8 ENE 1014,8 0,0
18.08.2018 00:00:00 24,1 19,8 4 2 9 5 WNW 1014,7 0,0
17.08.2018 23:00:00 23,9 19,8 8 4 15 8 W 1014,5 -
17.08.2018 22:00:00 23,5 21,0 11 6 21 11 WNW 1014,4 0,0
17.08.2018 21:00:00 23,9 20,6 18 10 26 14 WNW 1013,9 0,0
17.08.2018 20:00:00 25,4 17,3 15 8 31 17 W 1013,5 -
17.08.2018 19:00:00 26,2 18,6 24 13 41 22 W 1013,4 0,0
17.08.2018 18:00:00 26,6 18,7 28 15 37 20 W 1013,3 0,0
17.08.2018 17:00:00 26,7 21,0 29 16 44 24 W 1014,0 -
17.08.2018 16:00:00 28,0 18,1 21 11 29 16 W 1014,0 0,0
17.08.2018 15:00:00 26,9 19,8 22 12 29 16 W 1014,5 0,0
17.08.2018 14:00:00 26,6 19,7 16 9 24 13 W 1014,8 -
17.08.2018 13:00:00 26,7 18,3 15 8 24 13 WNW 1015,1 0,0
17.08.2018 12:00:00 25,8 17,7 15 8 18 10 WNW 1015,3 0,0
17.08.2018 11:00:00 25,6 16,4 9 5 21 11 WNW 1015,2 -
17.08.2018 10:00:00 25,4 17,3 15 8 22 12 W 1014,8 0,0
17.08.2018 09:00:00 24,2 17,7 16 9 22 12 W 1014,6 0,0
17.08.2018 08:00:00 23,1 17,3 16 9 22 12 W 1014,6 -
17.08.2018 07:00:00 22,7 16,7 15 8 22 12 W 1014,3 0,0
17.08.2018 06:00:00 23,0 17,2 16 9 24 13 W 1013,9 0,0
17.08.2018 05:00:00 23,5 15,8 18 10 26 14 W 1013,7 -
17.08.2018 04:00:00 23,3 17,3 16 9 22 12 W 1013,9 0,0
17.08.2018 03:00:00 23,2 16,7 11 6 16 9 W 1014,1 0,0
17.08.2018 02:00:00 23,3 18,4 13 7 21 11 W 1014,0 -
17.08.2018 01:00:00 23,6 18,3 16 9 28 15 W 1014,5 0,0
17.08.2018 00:00:00 24,1 18,1 21 11 28 15 W 1014,7 0,0
16.08.2018 23:00:00 24,5 17,0 21 11 26 14 W 1014,6 -
16.08.2018 22:00:00 24,2 17,7 16 9 22 12 W 1014,4 0,0
16.08.2018 21:00:00 24,3 16,8 15 8 18 10 W 1014,1 0,0
16.08.2018 20:00:00 26,1 18,8 11 6 21 11 W 1013,8 -
16.08.2018 19:00:00 26,7 20,8 13 7 24 13 W 1013,9 0,0
16.08.2018 18:00:00 28,3 18,4 11 6 21 11 WSW 1014,2 0,0
16.08.2018 17:00:00 27,6 16,6 9 5 18 10 S 1014,5 -
16.08.2018 16:00:00 28,3 19,2 8 4 16 9 SSE 1014,7 0,0
16.08.2018 15:00:00 28,9 20,1 11 6 16 9 ESE 1015,2 0,0
16.08.2018 14:00:00 28,2 18,9 11 6 18 10 ESE 1015,7 -
16.08.2018 13:00:00 28,5 19,4 13 7 21 11 ESE 1015,9 0,0
16.08.2018 12:00:00 28,0 18,7 16 9 28 15 E 1016,1 0,0
16.08.2018 11:00:00 27,8 18,2 16 9 26 14 E 1016,2 -
16.08.2018 10:00:00 27,2 17,7 13 7 28 15 E 1015,8 0,0
16.08.2018 09:00:00 25,7 17,1 11 6 21 11 ENE 1015,7 0,0
16.08.2018 08:00:00 24,1 16,4 15 8 18 10 E 1015,5 -
16.08.2018 07:00:00 23,3 15,4 13 7 16 9 ENE 1015,6 0,0
16.08.2018 06:00:00 23,2 17,4 9 5 11 6 E 1015,4 0,0
16.08.2018 05:00:00 22,5 18,3 9 5 11 6 WNW 1015,4 -
16.08.2018 04:00:00 24,0 16,0 9 5 13 7 WNW 1015,4 0,0
16.08.2018 03:00:00 25,0 13,2 9 5 11 6 WNW 1015,6 0,0
16.08.2018 02:00:00 24,7 14,2 9 5 11 6 WNW 1015,9 -
16.08.2018 01:00:00 24,3 15,8 8 4 13 7 W 1016,0 0,0

tt = Température de l'air
td = dewpoint
ff = Vitesse du vent
fx = gusts
dd = Direction du vent
ppp = reduced air pressure
rr = Quantités de précipitations

stations d'obs. à proximité